createdAt,value
2018-09-25T00:01:36.377Z,99.90
2018-09-25T00:04:09.348Z,99.90
2018-09-25T00:06:42.301Z,99.90
2018-09-25T00:09:15.419Z,99.90
2018-09-25T00:11:48.389Z,99.90
2018-09-25T00:14:21.391Z,99.90
2018-09-25T00:16:54.352Z,99.90
2018-09-25T00:19:27.263Z,99.90
2018-09-25T00:22:00.196Z,99.90
2018-09-25T00:24:33.179Z,99.90
2018-09-25T00:27:06.914Z,99.90
2018-09-25T00:29:39.903Z,99.90
2018-09-25T00:32:12.868Z,99.90
2018-09-25T00:34:45.868Z,99.90
2018-09-25T00:37:19.845Z,99.90
2018-09-25T00:39:52.724Z,99.90
2018-09-25T00:42:25.757Z,99.90
2018-09-25T00:44:58.705Z,99.90
2018-09-25T00:47:31.632Z,99.90
2018-09-25T00:50:04.717Z,99.90
2018-09-25T00:52:37.649Z,99.90
2018-09-25T00:55:10.816Z,99.90
2018-09-25T00:57:43.728Z,99.90
2018-09-25T01:00:16.723Z,99.90
2018-09-25T01:02:49.745Z,99.90
2018-09-25T01:05:22.616Z,99.90
2018-09-25T01:07:55.592Z,99.90
2018-09-25T01:10:28.574Z,99.90
2018-09-25T01:13:01.457Z,99.90
2018-09-25T01:15:34.437Z,99.90
2018-09-25T01:18:07.444Z,99.90
2018-09-25T01:20:40.468Z,99.90
2018-09-25T01:23:13.459Z,99.90
2018-09-25T01:25:46.410Z,99.90
2018-09-25T01:28:19.385Z,99.90
2018-09-25T01:30:52.248Z,99.90
2018-09-25T01:33:25.389Z,99.90
2018-09-25T01:35:58.542Z,99.90
2018-09-25T01:38:31.444Z,99.90
2018-09-25T01:41:04.425Z,99.90
2018-09-25T01:43:37.411Z,99.90
2018-09-25T01:46:11.016Z,99.90
2018-09-25T01:48:43.889Z,99.90
2018-09-25T01:51:17.040Z,99.90
2018-09-25T01:53:50.044Z,99.90
2018-09-25T01:56:23.150Z,99.90
2018-09-25T01:58:56.082Z,99.90
2018-09-25T02:01:29.023Z,99.90
2018-09-25T02:04:02.011Z,99.90
2018-09-25T02:06:35.132Z,99.90
2018-09-25T02:09:08.785Z,99.90
2018-09-25T02:11:41.911Z,99.90
2018-09-25T02:14:14.880Z,99.90
2018-09-25T02:16:47.878Z,99.90
2018-09-25T02:19:20.820Z,99.90
2018-09-25T02:21:53.804Z,99.90
2018-09-25T02:24:26.724Z,99.90
2018-09-25T02:26:59.605Z,99.90
2018-09-25T02:29:32.482Z,99.90
2018-09-25T02:32:05.493Z,99.90
2018-09-25T02:34:38.529Z,99.90
2018-09-25T02:37:11.900Z,99.90
2018-09-25T02:39:44.860Z,99.90
2018-09-25T02:42:17.757Z,99.90
2018-09-25T02:44:50.601Z,99.90
2018-09-25T02:47:23.517Z,99.90
2018-09-25T02:49:56.473Z,99.90
2018-09-25T02:52:29.401Z,99.90
2018-09-25T02:55:02.480Z,99.90
2018-09-25T02:57:35.477Z,99.90
2018-09-25T03:00:08.457Z,99.90
2018-09-25T03:02:41.368Z,99.90
2018-09-25T03:05:14.316Z,99.90
2018-09-25T03:07:47.144Z,99.90
2018-09-25T03:10:20.120Z,99.90
2018-09-25T03:12:53.071Z,99.90
2018-09-25T03:15:26.065Z,99.90
2018-09-25T03:17:58.917Z,99.90
2018-09-25T03:20:31.765Z,99.90
2018-09-25T03:23:04.825Z,99.90
2018-09-25T03:25:37.884Z,99.90
2018-09-25T03:28:10.887Z,99.90
2018-09-25T03:30:43.803Z,99.90
2018-09-25T03:33:16.762Z,99.90
2018-09-25T03:35:49.640Z,99.90
2018-09-25T03:38:22.617Z,99.90
2018-09-25T03:40:55.673Z,99.90
2018-09-25T03:43:28.696Z,99.90
2018-09-25T03:46:01.737Z,99.90
2018-09-25T03:48:34.639Z,99.90
2018-09-25T03:51:07.537Z,99.90
2018-09-25T03:53:41.469Z,99.90
2018-09-25T03:56:14.495Z,99.90
2018-09-25T03:58:47.401Z,99.90
2018-09-25T04:01:20.248Z,99.90
2018-09-25T04:03:53.132Z,99.90
2018-09-25T04:06:26.021Z,99.90
2018-09-25T04:08:58.933Z,99.90
2018-09-25T04:11:31.820Z,99.90
2018-09-25T04:14:05.132Z,99.90
2018-09-25T04:16:38.088Z,99.90
2018-09-25T04:19:11.046Z,99.90
2018-09-25T04:21:44.036Z,99.90
2018-09-25T04:24:16.981Z,99.90
2018-09-25T04:26:49.906Z,99.90
2018-09-25T04:29:24.090Z,99.90
2018-09-25T04:31:57.033Z,99.90
2018-09-25T04:34:29.987Z,99.90
2018-09-25T04:37:02.943Z,99.90
2018-09-25T04:39:35.849Z,99.90
2018-09-25T04:42:08.841Z,99.90
2018-09-25T04:44:41.829Z,99.90
2018-09-25T04:47:14.860Z,99.90
2018-09-25T04:49:47.708Z,99.90
2018-09-25T04:52:20.708Z,99.90
2018-09-25T04:54:53.702Z,99.90
2018-09-25T04:57:26.647Z,99.90
2018-09-25T04:59:59.496Z,99.90
2018-09-25T05:02:32.710Z,99.90
2018-09-25T05:05:05.612Z,99.90
2018-09-25T05:07:38.609Z,99.90
2018-09-25T05:10:11.596Z,99.90
2018-09-25T05:12:44.613Z,99.90
2018-09-25T05:15:17.476Z,99.90
2018-09-25T05:17:50.401Z,99.90
2018-09-25T05:20:23.356Z,99.90
2018-09-25T05:22:56.269Z,99.90
2018-09-25T05:25:29.238Z,99.90
2018-09-25T05:28:02.184Z,99.90
2018-09-25T05:30:35.073Z,99.90
2018-09-25T05:33:07.984Z,99.90
2018-09-25T05:35:40.904Z,99.90
2018-09-25T05:38:13.897Z,99.90
2018-09-25T05:40:46.831Z,99.90
2018-09-25T05:43:19.824Z,99.90
2018-09-25T05:45:52.804Z,99.90
2018-09-25T05:48:25.848Z,99.90
2018-09-25T05:50:59.721Z,99.90
2018-09-25T05:53:32.682Z,99.90
2018-09-25T05:56:05.694Z,99.90
2018-09-25T05:58:38.673Z,99.90
2018-09-25T06:01:11.647Z,99.90
2018-09-25T06:03:44.577Z,99.90
2018-09-25T06:06:17.523Z,99.90
2018-09-25T06:08:50.539Z,99.90
2018-09-25T06:11:30.455Z,99.90
2018-09-25T06:14:03.541Z,99.90
2018-09-25T06:16:36.441Z,99.90
2018-09-25T06:19:09.589Z,99.90
2018-09-25T06:21:42.620Z,99.90
2018-09-25T06:24:15.549Z,99.90
2018-09-25T06:26:48.572Z,99.90
2018-09-25T06:29:21.569Z,99.90
2018-09-25T06:31:54.502Z,99.90
2018-09-25T06:34:27.454Z,99.90
2018-09-25T06:37:00.435Z,99.90
2018-09-25T06:39:33.417Z,99.90
2018-09-25T06:42:06.577Z,99.90
2018-09-25T06:44:40.540Z,99.90
2018-09-25T06:47:13.547Z,99.90
2018-09-25T06:49:46.440Z,99.90
2018-09-25T06:52:19.488Z,99.90
2018-09-25T06:54:52.675Z,99.90
2018-09-25T06:57:25.551Z,99.90
2018-09-25T06:59:58.430Z,99.90
2018-09-25T07:02:31.254Z,99.90
2018-09-25T07:05:04.187Z,99.90
2018-09-25T07:07:37.189Z,99.90
2018-09-25T07:10:10.291Z,99.90
2018-09-25T07:12:43.121Z,99.90
2018-09-25T07:15:16.156Z,99.90
2018-09-25T07:17:49.113Z,99.90
2018-09-25T07:20:22.071Z,99.90
2018-09-25T07:22:55.012Z,99.90
2018-09-25T07:25:28.015Z,99.90
2018-09-25T07:28:00.864Z,99.90
2018-09-25T07:30:34.129Z,99.90
2018-09-25T07:33:07.177Z,99.90
2018-09-25T07:35:40.079Z,99.90
2018-09-25T07:38:13.032Z,99.90
2018-09-25T07:40:45.956Z,99.90
2018-09-25T07:43:18.894Z,99.90
2018-09-25T07:45:51.884Z,99.90
2018-09-25T07:48:24.786Z,99.90
2018-09-25T07:50:58.021Z,99.90
2018-09-25T07:53:30.976Z,99.90
2018-09-25T07:56:03.972Z,99.90
2018-09-25T07:58:36.917Z,99.90
2018-09-25T08:01:09.910Z,99.90
2018-09-25T08:03:42.973Z,99.90
2018-09-25T08:06:15.992Z,99.90
2018-09-25T08:08:49.015Z,99.90
2018-09-25T08:11:22.000Z,99.90
2018-09-25T08:13:54.972Z,99.90
2018-09-25T08:16:28.188Z,99.90
2018-09-25T08:19:01.144Z,99.90
2018-09-25T08:21:34.002Z,99.90
2018-09-25T08:24:06.942Z,99.90
2018-09-25T08:26:40.088Z,99.90
2018-09-25T08:29:13.632Z,99.90
2018-09-25T08:31:46.764Z,99.90
2018-09-25T08:34:19.692Z,99.90
2018-09-25T08:36:52.803Z,99.90
2018-09-25T08:39:25.850Z,99.90
2018-09-25T08:41:58.683Z,99.90
2018-09-25T08:44:31.643Z,99.90
2018-09-25T08:47:04.541Z,99.90
2018-09-25T08:49:37.405Z,99.90
2018-09-25T08:52:10.578Z,99.90
2018-09-25T08:54:43.547Z,99.90
2018-09-25T08:57:17.332Z,99.90
2018-09-25T08:59:50.500Z,99.90
2018-09-25T09:02:23.530Z,99.90
2018-09-25T09:04:57.245Z,99.90
2018-09-25T09:07:30.146Z,99.90
2018-09-25T09:10:03.137Z,99.90
2018-09-25T09:12:36.017Z,99.90
2018-09-25T09:15:09.527Z,99.90
2018-09-25T09:17:42.490Z,99.90
2018-09-25T09:20:15.558Z,99.90
2018-09-25T09:22:48.468Z,99.90
2018-09-25T09:25:21.439Z,99.90
2018-09-25T09:27:54.421Z,99.90
2018-09-25T09:30:27.556Z,99.90
2018-09-25T09:33:01.645Z,99.90
2018-09-25T09:35:34.627Z,99.90
2018-09-25T09:38:07.481Z,99.90
2018-09-25T09:40:40.494Z,99.90
2018-09-25T09:43:13.433Z,99.90
2018-09-25T09:45:46.373Z,99.90
2018-09-25T09:48:19.369Z,99.90
2018-09-25T09:50:52.385Z,99.90
2018-09-25T09:53:25.253Z,99.90
2018-09-25T09:55:59.100Z,99.90
2018-09-25T09:58:32.104Z,99.90
2018-09-25T10:01:05.022Z,99.90
2018-09-25T10:03:37.967Z,99.90
2018-09-25T10:06:10.984Z,99.90
2018-09-25T10:08:43.864Z,99.90
2018-09-25T10:11:16.770Z,99.90
2018-09-25T10:13:49.672Z,99.90
2018-09-25T10:16:22.576Z,99.90
2018-09-25T10:18:55.615Z,99.90
2018-09-25T10:21:28.494Z,99.90
2018-09-25T10:24:01.484Z,99.90
2018-09-25T10:26:34.468Z,99.40
2018-09-25T10:29:07.545Z,99.30
2018-09-25T10:31:40.510Z,97.30
2018-09-25T10:34:13.547Z,98.50
2018-09-25T10:36:46.524Z,98.90
2018-09-25T10:39:19.556Z,99.90
2018-09-25T10:41:52.631Z,99.20
2018-09-25T10:44:25.613Z,99.90
2018-09-25T10:46:58.762Z,99.20
2018-09-25T10:49:31.961Z,99.90
2018-09-25T10:52:04.861Z,98.30
2018-09-25T10:54:37.732Z,98.40
2018-09-25T10:57:10.865Z,98.00
2018-09-25T10:59:43.935Z,97.60
2018-09-25T11:02:16.904Z,97.90
2018-09-25T11:04:49.876Z,99.60
2018-09-25T11:07:22.902Z,98.20
2018-09-25T11:09:55.880Z,98.80
2018-09-25T11:12:28.867Z,98.00
2018-09-25T11:15:01.840Z,99.10
2018-09-25T11:17:34.845Z,97.70
2018-09-25T11:20:07.837Z,97.00
2018-09-25T11:22:40.792Z,99.60
2018-09-25T11:25:13.665Z,98.40
2018-09-25T11:27:46.726Z,97.60
2018-09-25T11:30:19.701Z,97.90
2018-09-25T11:32:53.056Z,98.40
2018-09-25T11:35:26.091Z,98.00
2018-09-25T11:37:58.822Z,97.70
2018-09-25T11:40:31.717Z,98.30
2018-09-25T11:43:04.607Z,93.30
2018-09-25T11:45:37.544Z,95.90
2018-09-25T11:48:10.493Z,91.90
2018-09-25T11:50:43.453Z,90.40
2018-09-25T11:53:16.424Z,91.20
2018-09-25T11:55:49.320Z,91.50
2018-09-25T11:58:22.356Z,91.60
2018-09-25T12:00:55.306Z,91.00
2018-09-25T12:03:28.166Z,94.90
2018-09-25T12:06:01.052Z,92.30
2018-09-25T12:08:34.044Z,92.50
2018-09-25T12:11:06.940Z,91.30
2018-09-25T12:13:39.961Z,92.90
2018-09-25T12:16:12.933Z,90.00
2018-09-25T12:18:45.829Z,89.20
2018-09-25T12:21:18.909Z,88.60
2018-09-25T12:23:51.888Z,91.30
2018-09-25T12:26:25.017Z,90.70
2018-09-25T12:28:57.961Z,87.20
2018-09-25T12:31:30.948Z,88.80
2018-09-25T12:34:03.851Z,87.60
2018-09-25T12:36:36.780Z,85.30
2018-09-25T12:39:12.085Z,75.60
2018-09-25T12:41:45.300Z,74.50
2018-09-25T12:44:18.479Z,71.90
2018-09-25T12:46:51.548Z,73.40
2018-09-25T12:49:24.513Z,69.90
2018-09-25T12:51:57.765Z,71.30
2018-09-25T12:54:30.712Z,73.00
2018-09-25T12:57:03.647Z,64.60
2018-09-25T12:59:36.632Z,64.50
2018-09-25T13:02:09.596Z,62.10
2018-09-25T13:04:42.545Z,58.70
2018-09-25T13:07:15.429Z,57.10
2018-09-25T13:09:48.360Z,58.30
2018-09-25T13:12:21.293Z,55.30
2018-09-25T13:14:54.330Z,56.10
2018-09-25T13:17:27.349Z,56.10
2018-09-25T13:20:00.268Z,56.30
2018-09-25T13:22:33.313Z,56.90
2018-09-25T13:25:06.211Z,58.20
2018-09-25T13:27:39.201Z,54.90
2018-09-25T13:30:12.159Z,54.90
2018-09-25T13:32:45.199Z,49.60
2018-09-25T13:35:18.192Z,51.80
2018-09-25T13:37:51.059Z,55.10
2018-09-25T13:40:24.111Z,52.70
2018-09-25T13:42:57.031Z,53.20
2018-09-25T13:45:30.033Z,53.30
2018-09-25T13:48:02.992Z,51.80
2018-09-25T13:50:35.861Z,51.80
2018-09-25T13:53:08.800Z,53.30
2018-09-25T13:55:41.797Z,51.50
2018-09-25T13:58:14.708Z,51.60
2018-09-25T14:00:47.732Z,55.30
2018-09-25T14:03:20.680Z,50.50
2018-09-25T14:05:53.612Z,50.00
2018-09-25T14:08:26.541Z,51.40
2018-09-25T14:10:59.460Z,46.20
2018-09-25T14:13:32.380Z,49.50
2018-09-25T14:16:05.352Z,49.30
2018-09-25T14:18:38.327Z,48.20
2018-09-25T14:21:11.502Z,50.10
2018-09-25T14:23:44.493Z,50.20
2018-09-25T14:26:17.395Z,51.80
2018-09-25T14:28:50.329Z,49.20
2018-09-25T14:31:23.388Z,48.30
2018-09-25T14:33:56.376Z,47.30
2018-09-25T14:36:29.244Z,48.70
2018-09-25T14:39:02.184Z,47.30
2018-09-25T14:41:35.234Z,44.30
2018-09-25T14:44:08.172Z,46.00
2018-09-25T14:46:41.084Z,46.00
2018-09-25T14:49:14.105Z,46.20
2018-09-25T14:51:47.074Z,47.10
2018-09-25T14:54:19.970Z,49.60
2018-09-25T14:56:52.952Z,47.10
2018-09-25T14:59:25.935Z,45.60
2018-09-25T15:01:58.999Z,46.90
2018-09-25T15:04:32.004Z,47.40
2018-09-25T15:07:04.929Z,45.90
2018-09-25T15:09:37.851Z,45.90
2018-09-25T15:12:10.865Z,46.70
2018-09-25T15:14:43.868Z,47.20
2018-09-25T15:17:16.764Z,46.50
2018-09-25T15:19:49.692Z,46.40
2018-09-25T15:22:22.900Z,46.90
2018-09-25T15:24:55.772Z,46.20
2018-09-25T15:27:28.776Z,46.50
2018-09-25T15:30:01.711Z,45.50
2018-09-25T15:32:34.700Z,46.30
2018-09-25T15:35:07.656Z,48.00
2018-09-25T15:37:40.619Z,46.00
2018-09-25T15:40:13.501Z,47.90
2018-09-25T15:42:46.468Z,47.20
2018-09-25T15:45:19.440Z,48.20
2018-09-25T15:47:52.531Z,47.40
2018-09-25T15:50:25.516Z,48.50
2018-09-25T15:52:58.463Z,47.50
2018-09-25T15:55:31.409Z,45.40
2018-09-25T15:58:04.325Z,48.80
2018-09-25T16:00:37.268Z,49.70
2018-09-25T16:03:10.213Z,47.90
2018-09-25T16:05:43.098Z,46.60
2018-09-25T16:08:16.037Z,48.20
2018-09-25T16:10:48.924Z,47.90
2018-09-25T16:13:21.781Z,49.10
2018-09-25T16:15:54.721Z,48.70
2018-09-25T16:18:27.690Z,49.40
2018-09-25T16:21:01.606Z,50.90
2018-09-25T16:23:34.536Z,50.30
2018-09-25T16:26:07.460Z,51.30
2018-09-25T16:28:40.412Z,51.40
2018-09-25T16:31:13.341Z,52.20
2018-09-25T16:33:46.268Z,52.00
2018-09-25T16:36:19.300Z,52.70
2018-09-25T16:38:52.281Z,54.20
2018-09-25T16:41:25.235Z,55.60
2018-09-25T16:43:58.204Z,58.20
2018-09-25T16:46:31.153Z,59.80
2018-09-25T16:49:04.132Z,61.00
2018-09-25T16:51:37.112Z,62.90
2018-09-25T16:54:10.120Z,64.90
2018-09-25T16:56:43.128Z,65.20
2018-09-25T16:59:16.145Z,66.40
2018-09-25T17:01:49.064Z,67.90
2018-09-25T17:04:21.989Z,67.60
2018-09-25T17:06:54.878Z,69.90
2018-09-25T17:09:27.871Z,71.40
2018-09-25T17:12:00.841Z,72.00
2018-09-25T17:14:33.836Z,72.20
2018-09-25T17:17:06.722Z,73.60
2018-09-25T17:19:39.666Z,73.70
2018-09-25T17:22:12.591Z,76.80
2018-09-25T17:24:45.578Z,76.60
2018-09-25T17:27:18.511Z,77.50
2018-09-25T17:29:51.484Z,78.40
2018-09-25T17:32:24.428Z,80.40
2018-09-25T17:34:57.332Z,80.60
2018-09-25T17:37:30.203Z,82.80
2018-09-25T17:40:03.082Z,83.40
2018-09-25T17:42:36.088Z,86.90
2018-09-25T17:45:09.424Z,88.40
2018-09-25T17:47:42.504Z,89.60
2018-09-25T17:50:15.447Z,88.70
2018-09-25T17:52:48.441Z,90.70
2018-09-25T17:55:21.436Z,91.70
2018-09-25T17:57:54.373Z,92.80
2018-09-25T18:00:27.282Z,94.10
2018-09-25T18:03:00.184Z,97.00
2018-09-25T18:05:33.052Z,99.30
2018-09-25T18:08:05.965Z,99.90
2018-09-25T18:10:38.980Z,99.90
2018-09-25T18:13:11.911Z,99.90
2018-09-25T18:15:44.828Z,99.90
2018-09-25T18:18:17.967Z,99.90
2018-09-25T18:20:51.069Z,99.90
2018-09-25T18:23:24.112Z,99.90
2018-09-25T18:25:56.960Z,99.90
2018-09-25T18:28:29.849Z,99.90
2018-09-25T18:31:02.731Z,99.90
2018-09-25T18:33:35.789Z,99.90
2018-09-25T18:36:08.752Z,99.90
2018-09-25T18:38:41.720Z,99.90
2018-09-25T18:41:14.689Z,99.90
2018-09-25T18:43:47.654Z,99.90
2018-09-25T18:46:20.508Z,99.90
2018-09-25T18:48:53.433Z,99.90
2018-09-25T18:51:26.412Z,99.90
2018-09-25T18:53:59.412Z,99.90
2018-09-25T18:56:33.428Z,99.90
2018-09-25T18:59:06.416Z,99.90
2018-09-25T19:01:39.384Z,99.90
2018-09-25T19:04:12.281Z,99.90
2018-09-25T19:06:45.257Z,99.90
2018-09-25T19:09:18.262Z,99.90
2018-09-25T19:11:51.249Z,99.90
2018-09-25T19:14:24.343Z,99.90
2018-09-25T19:16:57.426Z,99.90
2018-09-25T19:19:30.332Z,99.90
2018-09-25T19:22:03.319Z,99.90
2018-09-25T19:24:36.284Z,99.90
2018-09-25T19:27:09.144Z,99.90
2018-09-25T19:29:42.102Z,99.90
2018-09-25T19:32:15.037Z,99.90
2018-09-25T19:34:48.731Z,99.90
2018-09-25T19:37:22.289Z,99.90
2018-09-25T19:39:55.441Z,99.90
2018-09-25T19:42:28.400Z,99.90
2018-09-25T19:45:01.283Z,99.90
2018-09-25T19:47:34.277Z,99.90
2018-09-25T19:50:07.525Z,99.90
2018-09-25T19:52:40.501Z,99.90
2018-09-25T19:55:13.460Z,99.90
2018-09-25T19:57:46.349Z,99.90
2018-09-25T20:00:19.293Z,99.90
2018-09-25T20:02:52.290Z,99.90
2018-09-25T20:05:25.287Z,99.90
2018-09-25T20:07:59.036Z,99.90
2018-09-25T20:10:31.987Z,99.90
2018-09-25T20:13:04.869Z,99.90
2018-09-25T20:15:37.820Z,99.90
2018-09-25T20:18:10.993Z,99.90
2018-09-25T20:20:43.925Z,99.90
2018-09-25T20:23:17.757Z,99.90
2018-09-25T20:25:50.873Z,99.90
2018-09-25T20:28:23.848Z,99.90
2018-09-25T20:30:56.716Z,99.90
2018-09-25T20:33:30.806Z,99.90
2018-09-25T20:36:03.753Z,99.90
2018-09-25T20:38:36.691Z,99.90
2018-09-25T20:41:09.937Z,99.90
2018-09-25T20:43:42.877Z,99.90
2018-09-25T20:46:15.793Z,99.90
2018-09-25T20:48:48.737Z,99.90
2018-09-25T20:51:21.765Z,99.90
2018-09-25T20:53:54.713Z,99.90
2018-09-25T20:56:27.705Z,99.90
2018-09-25T20:59:00.593Z,99.90
2018-09-25T21:01:33.576Z,99.90
2018-09-25T21:04:06.465Z,99.90
2018-09-25T21:06:39.429Z,99.90
2018-09-25T21:09:13.651Z,99.90
2018-09-25T21:11:47.152Z,99.90
2018-09-25T21:14:20.168Z,99.90
2018-09-25T21:16:53.213Z,99.90
2018-09-25T21:19:26.132Z,99.90
2018-09-25T21:21:59.010Z,99.90
2018-09-25T21:24:32.004Z,99.90
2018-09-25T21:27:05.018Z,99.90
2018-09-25T21:29:37.949Z,99.90
2018-09-25T21:32:11.199Z,99.90
2018-09-25T21:34:44.281Z,99.90
2018-09-25T21:37:17.159Z,99.90
2018-09-25T21:39:50.268Z,99.90
2018-09-25T21:42:23.312Z,99.90
2018-09-25T21:44:56.298Z,99.90
2018-09-25T21:47:29.169Z,99.90
2018-09-25T21:50:02.053Z,99.90
2018-09-25T21:52:34.969Z,99.90
2018-09-25T21:55:07.880Z,99.90
2018-09-25T21:57:40.929Z,99.90
2018-09-25T22:00:13.829Z,99.90
2018-09-25T22:02:47.270Z,99.90
2018-09-25T22:05:20.189Z,99.90
2018-09-25T22:07:53.137Z,99.90
2018-09-25T22:10:26.060Z,99.90
2018-09-25T22:12:59.048Z,99.90
2018-09-25T22:15:32.085Z,99.90
2018-09-25T22:18:05.033Z,99.90
2018-09-25T22:20:38.001Z,99.90
2018-09-25T22:23:11.392Z,99.90
2018-09-25T22:25:45.283Z,99.90
2018-09-25T22:28:18.212Z,99.90
2018-09-25T22:30:51.101Z,99.90
2018-09-25T22:33:24.460Z,99.90
2018-09-25T22:35:57.365Z,99.90
2018-09-25T22:38:30.374Z,99.90
2018-09-25T22:41:03.320Z,99.90
2018-09-25T22:43:36.379Z,99.90
2018-09-25T22:46:09.305Z,99.90
2018-09-25T22:48:42.405Z,99.90
2018-09-25T22:51:15.236Z,99.90
2018-09-25T22:53:48.176Z,99.90
2018-09-25T22:56:21.144Z,99.90
2018-09-25T22:58:54.154Z,99.90
2018-09-25T23:01:27.123Z,99.90
2018-09-25T23:04:00.183Z,99.90
2018-09-25T23:06:33.094Z,99.90
2018-09-25T23:09:06.212Z,99.90
2018-09-25T23:11:39.158Z,99.90
2018-09-25T23:25:45.928Z,99.90
2018-09-25T23:28:18.809Z,99.90
2018-09-25T23:30:51.735Z,99.90
2018-09-25T23:33:24.611Z,99.90
2018-09-25T23:35:57.581Z,99.90
2018-09-25T23:38:31.015Z,99.90
2018-09-25T23:41:05.885Z,99.90
2018-09-25T23:43:38.596Z,99.90
2018-09-25T23:46:11.271Z,99.90
2018-09-25T23:49:14.323Z,99.90
2018-09-25T23:51:49.819Z,99.90
2018-09-25T23:54:22.695Z,99.90
2018-09-25T23:57:02.062Z,99.90
2018-09-25T23:59:33.133Z,99.90
